sensor_id;sensor_type;location;lat;lon;timestamp;P1;durP1;ratioP1;P2;durP2;ratioP2
25988;SDS011;13778;48.236;9.894;2022-09-27T00:02:45;5.78;;;1.48;;
25988;SDS011;13778;48.236;9.894;2022-09-27T00:05:37;3.47;;;1.45;;
25988;SDS011;13778;48.236;9.894;2022-09-27T00:08:28;1.75;;;1.40;;
25988;SDS011;13778;48.236;9.894;2022-09-27T00:11:20;2.33;;;1.55;;
25988;SDS011;13778;48.236;9.894;2022-09-27T00:14:12;3.95;;;1.73;;
25988;SDS011;13778;48.236;9.894;2022-09-27T00:17:03;2.37;;;1.73;;
25988;SDS011;13778;48.236;9.894;2022-09-27T00:19:57;3.70;;;1.58;;
25988;SDS011;13778;48.236;9.894;2022-09-27T00:22:48;2.00;;;1.50;;
25988;SDS011;13778;48.236;9.894;2022-09-27T00:25:38;2.67;;;1.63;;
25988;SDS011;13778;48.236;9.894;2022-09-27T00:28:30;1.58;;;1.30;;
25988;SDS011;13778;48.236;9.894;2022-09-27T00:31:21;3.05;;;1.83;;
25988;SDS011;13778;48.236;9.894;2022-09-27T00:34:15;3.67;;;1.52;;
25988;SDS011;13778;48.236;9.894;2022-09-27T00:37:08;1.70;;;1.60;;
25988;SDS011;13778;48.236;9.894;2022-09-27T00:39:59;6.78;;;1.52;;
25988;SDS011;13778;48.236;9.894;2022-09-27T00:42:49;3.00;;;1.20;;
25988;SDS011;13778;48.236;9.894;2022-09-27T00:45:40;3.72;;;1.38;;
25988;SDS011;13778;48.236;9.894;2022-09-27T00:48:30;2.13;;;1.45;;
25988;SDS011;13778;48.236;9.894;2022-09-27T00:51:21;4.10;;;2.03;;
25988;SDS011;13778;48.236;9.894;2022-09-27T00:54:14;1.85;;;1.25;;
25988;SDS011;13778;48.236;9.894;2022-09-27T00:57:06;4.30;;;1.20;;
25988;SDS011;13778;48.236;9.894;2022-09-27T00:59:58;1.70;;;1.20;;
25988;SDS011;13778;48.236;9.894;2022-09-27T01:02:51;1.10;;;1.00;;
25988;SDS011;13778;48.236;9.894;2022-09-27T01:05:42;3.83;;;1.30;;
25988;SDS011;13778;48.236;9.894;2022-09-27T01:08:33;1.73;;;1.20;;
25988;SDS011;13778;48.236;9.894;2022-09-27T01:11:37;1.55;;;1.13;;
25988;SDS011;13778;48.236;9.894;2022-09-27T01:14:31;2.03;;;1.00;;
25988;SDS011;13778;48.236;9.894;2022-09-27T01:17:29;1.40;;;1.25;;
25988;SDS011;13778;48.236;9.894;2022-09-27T01:26:48;1.95;;;1.00;;
25988;SDS011;13778;48.236;9.894;2022-09-27T01:29:47;5.50;;;2.20;;
25988;SDS011;13778;48.236;9.894;2022-09-27T01:32:41;1.40;;;1.30;;
25988;SDS011;13778;48.236;9.894;2022-09-27T01:35:39;3.78;;;1.20;;
25988;SDS011;13778;48.236;9.894;2022-09-27T01:38:38;1.80;;;1.42;;
25988;SDS011;13778;48.236;9.894;2022-09-27T01:41:32;2.67;;;1.00;;
25988;SDS011;13778;48.236;9.894;2022-09-27T01:44:26;2.22;;;1.30;;
25988;SDS011;13778;48.236;9.894;2022-09-27T01:47:17;2.03;;;1.33;;
25988;SDS011;13778;48.236;9.894;2022-09-27T01:53:01;1.67;;;1.20;;
25988;SDS011;13778;48.236;9.894;2022-09-27T01:55:52;1.30;;;1.15;;
25988;SDS011;13778;48.236;9.894;2022-09-27T01:58:45;1.50;;;1.40;;
25988;SDS011;13778;48.236;9.894;2022-09-27T02:01:38;3.72;;;1.50;;
25988;SDS011;13778;48.236;9.894;2022-09-27T02:04:30;1.63;;;1.30;;
25988;SDS011;13778;48.236;9.894;2022-09-27T02:07:23;1.90;;;1.40;;
25988;SDS011;13778;48.236;9.894;2022-09-27T02:10:18;2.20;;;0.95;;
25988;SDS011;13778;48.236;9.894;2022-09-27T02:13:12;1.73;;;1.52;;
25988;SDS011;13778;48.236;9.894;2022-09-27T02:16:05;1.92;;;1.25;;
25988;SDS011;13778;48.236;9.894;2022-09-27T02:19:00;1.77;;;1.33;;
25988;SDS011;13778;48.236;9.894;2022-09-27T02:21:54;2.15;;;1.23;;
25988;SDS011;13778;48.236;9.894;2022-09-27T02:24:45;1.40;;;1.30;;
25988;SDS011;13778;48.236;9.894;2022-09-27T02:27:39;2.75;;;1.40;;
25988;SDS011;13778;48.236;9.894;2022-09-27T02:30:31;1.25;;;1.15;;
25988;SDS011;13778;48.236;9.894;2022-09-27T02:33:22;3.78;;;1.48;;
25988;SDS011;13778;48.236;9.894;2022-09-27T02:36:14;6.50;;;1.33;;
25988;SDS011;13778;48.236;9.894;2022-09-27T02:39:05;1.45;;;1.23;;
25988;SDS011;13778;48.236;9.894;2022-09-27T02:41:56;3.92;;;1.52;;
25988;SDS011;13778;48.236;9.894;2022-09-27T02:44:49;1.48;;;1.20;;
25988;SDS011;13778;48.236;9.894;2022-09-27T02:47:48;1.42;;;1.27;;
25988;SDS011;13778;48.236;9.894;2022-09-27T02:50:48;1.48;;;1.38;;
25988;SDS011;13778;48.236;9.894;2022-09-27T02:53:46;2.88;;;1.25;;
25988;SDS011;13778;48.236;9.894;2022-09-27T02:56:42;4.13;;;3.28;;
25988;SDS011;13778;48.236;9.894;2022-09-27T02:59:37;2.35;;;1.75;;
25988;SDS011;13778;48.236;9.894;2022-09-27T03:02:32;4.50;;;2.00;;
25988;SDS011;13778;48.236;9.894;2022-09-27T03:05:26;1.80;;;1.70;;
25988;SDS011;13778;48.236;9.894;2022-09-27T03:08:18;4.32;;;3.97;;
25988;SDS011;13778;48.236;9.894;2022-09-27T03:11:08;1.35;;;1.05;;
25988;SDS011;13778;48.236;9.894;2022-09-27T03:13:59;1.33;;;1.23;;
25988;SDS011;13778;48.236;9.894;2022-09-27T03:16:49;2.88;;;1.48;;
25988;SDS011;13778;48.236;9.894;2022-09-27T03:19:41;1.55;;;1.17;;
25988;SDS011;13778;48.236;9.894;2022-09-27T03:22:31;5.57;;;4.22;;
25988;SDS011;13778;48.236;9.894;2022-09-27T03:25:22;5.53;;;5.03;;
25988;SDS011;13778;48.236;9.894;2022-09-27T03:28:12;3.78;;;3.38;;
25988;SDS011;13778;48.236;9.894;2022-09-27T03:31:03;9.52;;;8.00;;
25988;SDS011;13778;48.236;9.894;2022-09-27T03:33:53;1.63;;;1.50;;
25988;SDS011;13778;48.236;9.894;2022-09-27T03:36:45;1.15;;;0.88;;
25988;SDS011;13778;48.236;9.894;2022-09-27T03:39:36;0.80;;;0.80;;
25988;SDS011;13778;48.236;9.894;2022-09-27T03:42:27;0.88;;;0.85;;
25988;SDS011;13778;48.236;9.894;2022-09-27T03:45:17;2.05;;;0.90;;
25988;SDS011;13778;48.236;9.894;2022-09-27T03:48:08;0.88;;;0.85;;
25988;SDS011;13778;48.236;9.894;2022-09-27T03:50:58;1.35;;;0.82;;
25988;SDS011;13778;48.236;9.894;2022-09-27T03:53:50;1.13;;;1.02;;
25988;SDS011;13778;48.236;9.894;2022-09-27T03:56:41;1.25;;;0.80;;
25988;SDS011;13778;48.236;9.894;2022-09-27T03:59:31;0.88;;;0.80;;
25988;SDS011;13778;48.236;9.894;2022-09-27T04:02:22;1.92;;;0.75;;
25988;SDS011;13778;48.236;9.894;2022-09-27T04:05:12;0.93;;;0.63;;
25988;SDS011;13778;48.236;9.894;2022-09-27T04:08:03;1.45;;;0.90;;
25988;SDS011;13778;48.236;9.894;2022-09-27T04:10:55;0.70;;;0.55;;
25988;SDS011;13778;48.236;9.894;2022-09-27T04:13:46;8.25;;;1.02;;
25988;SDS011;13778;48.236;9.894;2022-09-27T04:16:36;1.30;;;0.93;;
25988;SDS011;13778;48.236;9.894;2022-09-27T04:19:28;1.98;;;1.05;;
25988;SDS011;13778;48.236;9.894;2022-09-27T04:22:18;1.20;;;1.08;;
25988;SDS011;13778;48.236;9.894;2022-09-27T04:25:09;1.98;;;1.00;;
25988;SDS011;13778;48.236;9.894;2022-09-27T04:28:01;0.98;;;0.65;;
25988;SDS011;13778;48.236;9.894;2022-09-27T04:30:52;1.10;;;1.00;;
25988;SDS011;13778;48.236;9.894;2022-09-27T04:33:42;1.38;;;0.98;;
25988;SDS011;13778;48.236;9.894;2022-09-27T04:36:33;2.88;;;0.80;;
25988;SDS011;13778;48.236;9.894;2022-09-27T04:39:23;1.10;;;1.00;;
25988;SDS011;13778;48.236;9.894;2022-09-27T04:42:13;1.92;;;1.00;;
25988;SDS011;13778;48.236;9.894;2022-09-27T04:45:05;0.75;;;0.75;;
25988;SDS011;13778;48.236;9.894;2022-09-27T04:47:56;1.85;;;1.17;;
25988;SDS011;13778;48.236;9.894;2022-09-27T04:50:46;1.88;;;1.08;;
25988;SDS011;13778;48.236;9.894;2022-09-27T04:53:37;1.30;;;0.73;;
25988;SDS011;13778;48.236;9.894;2022-09-27T04:56:27;2.30;;;1.20;;
25988;SDS011;13778;48.236;9.894;2022-09-27T04:59:17;0.80;;;0.80;;
25988;SDS011;13778;48.236;9.894;2022-09-27T05:02:09;3.22;;;1.30;;
25988;SDS011;13778;48.236;9.894;2022-09-27T05:05:00;1.15;;;0.98;;
25988;SDS011;13778;48.236;9.894;2022-09-27T05:07:50;2.50;;;1.10;;
25988;SDS011;13778;48.236;9.894;2022-09-27T05:10:41;2.78;;;1.10;;
25988;SDS011;13778;48.236;9.894;2022-09-27T05:13:31;2.28;;;1.40;;
25988;SDS011;13778;48.236;9.894;2022-09-27T05:16:22;1.58;;;1.10;;
25988;SDS011;13778;48.236;9.894;2022-09-27T05:19:14;2.23;;;1.20;;
25988;SDS011;13778;48.236;9.894;2022-09-27T05:22:05;1.35;;;1.10;;
25988;SDS011;13778;48.236;9.894;2022-09-27T05:24:55;6.30;;;1.42;;
25988;SDS011;13778;48.236;9.894;2022-09-27T05:27:45;3.75;;;1.48;;
25988;SDS011;13778;48.236;9.894;2022-09-27T05:30:36;1.95;;;1.23;;
25988;SDS011;13778;48.236;9.894;2022-09-27T05:33:27;2.78;;;1.52;;
25988;SDS011;13778;48.236;9.894;2022-09-27T05:36:18;2.90;;;1.38;;
25988;SDS011;13778;48.236;9.894;2022-09-27T05:39:09;2.58;;;1.30;;
25988;SDS011;13778;48.236;9.894;2022-09-27T05:42:00;3.40;;;1.60;;
25988;SDS011;13778;48.236;9.894;2022-09-27T05:44:53;6.65;;;1.85;;
25988;SDS011;13778;48.236;9.894;2022-09-27T05:47:50;4.40;;;1.60;;
25988;SDS011;13778;48.236;9.894;2022-09-27T05:50:41;4.07;;;1.55;;
25988;SDS011;13778;48.236;9.894;2022-09-27T05:53:32;2.10;;;1.40;;
25988;SDS011;13778;48.236;9.894;2022-09-27T05:56:23;2.85;;;1.15;;
25988;SDS011;13778;48.236;9.894;2022-09-27T05:59:14;3.55;;;1.48;;
25988;SDS011;13778;48.236;9.894;2022-09-27T06:02:04;7.03;;;1.38;;
25988;SDS011;13778;48.236;9.894;2022-09-27T06:04:55;0.90;;;0.90;;
25988;SDS011;13778;48.236;9.894;2022-09-27T06:07:45;3.72;;;1.73;;
25988;SDS011;13778;48.236;9.894;2022-09-27T06:10:39;3.40;;;1.45;;
25988;SDS011;13778;48.236;9.894;2022-09-27T06:13:30;3.05;;;1.30;;
25988;SDS011;13778;48.236;9.894;2022-09-27T06:16:21;4.45;;;1.35;;
25988;SDS011;13778;48.236;9.894;2022-09-27T06:19:11;3.47;;;1.15;;
25988;SDS011;13778;48.236;9.894;2022-09-27T06:22:02;4.15;;;1.10;;
25988;SDS011;13778;48.236;9.894;2022-09-27T06:24:52;2.42;;;1.10;;
25988;SDS011;13778;48.236;9.894;2022-09-27T06:27:44;3.53;;;1.50;;
25988;SDS011;13778;48.236;9.894;2022-09-27T06:33:26;4.38;;;1.27;;
25988;SDS011;13778;48.236;9.894;2022-09-27T06:36:17;3.25;;;1.10;;
25988;SDS011;13778;48.236;9.894;2022-09-27T06:39:07;4.82;;;1.10;;
25988;SDS011;13778;48.236;9.894;2022-09-27T06:41:57;1.10;;;1.00;;
25988;SDS011;13778;48.236;9.894;2022-09-27T06:44:49;3.42;;;1.10;;
25988;SDS011;13778;48.236;9.894;2022-09-27T06:47:40;3.80;;;0.95;;
25988;SDS011;13778;48.236;9.894;2022-09-27T06:50:32;1.98;;;0.80;;
25988;SDS011;13778;48.236;9.894;2022-09-27T06:53:23;1.65;;;0.90;;
25988;SDS011;13778;48.236;9.894;2022-09-27T06:56:13;1.48;;;0.88;;
25988;SDS011;13778;48.236;9.894;2022-09-27T06:59:03;1.30;;;0.80;;
25988;SDS011;13778;48.236;9.894;2022-09-27T07:02:13;2.17;;;1.05;;
25988;SDS011;13778;48.236;9.894;2022-09-27T07:05:04;0.80;;;0.75;;
25988;SDS011;13778;48.236;9.894;2022-09-27T07:07:58;3.13;;;1.50;;
25988;SDS011;13778;48.236;9.894;2022-09-27T07:10:48;2.42;;;1.10;;
25988;SDS011;13778;48.236;9.894;2022-09-27T07:13:39;1.83;;;1.00;;
25988;SDS011;13778;48.236;9.894;2022-09-27T07:16:31;1.63;;;0.95;;
25988;SDS011;13778;48.236;9.894;2022-09-27T07:19:23;1.63;;;1.00;;
25988;SDS011;13778;48.236;9.894;2022-09-27T07:22:15;2.60;;;1.05;;
25988;SDS011;13778;48.236;9.894;2022-09-27T07:25:06;0.83;;;0.70;;
25988;SDS011;13778;48.236;9.894;2022-09-27T07:27:59;2.67;;;1.20;;
25988;SDS011;13778;48.236;9.894;2022-09-27T07:30:53;0.88;;;0.88;;
25988;SDS011;13778;48.236;9.894;2022-09-27T07:33:43;1.42;;;0.70;;
25988;SDS011;13778;48.236;9.894;2022-09-27T07:36:35;1.23;;;0.77;;
25988;SDS011;13778;48.236;9.894;2022-09-27T07:39:25;0.70;;;0.65;;
25988;SDS011;13778;48.236;9.894;2022-09-27T07:42:16;1.60;;;0.90;;
25988;SDS011;13778;48.236;9.894;2022-09-27T07:45:07;3.70;;;0.77;;
25988;SDS011;13778;48.236;9.894;2022-09-27T07:47:58;2.70;;;0.85;;
25988;SDS011;13778;48.236;9.894;2022-09-27T07:50:48;0.90;;;0.63;;
25988;SDS011;13778;48.236;9.894;2022-09-27T07:53:40;2.30;;;0.63;;
25988;SDS011;13778;48.236;9.894;2022-09-27T07:56:31;0.80;;;0.80;;
25988;SDS011;13778;48.236;9.894;2022-09-27T07:59:21;0.80;;;0.70;;
25988;SDS011;13778;48.236;9.894;2022-09-27T08:02:12;2.65;;;1.17;;
25988;SDS011;13778;48.236;9.894;2022-09-27T08:05:03;3.57;;;1.70;;
25988;SDS011;13778;48.236;9.894;2022-09-27T08:07:53;1.20;;;1.10;;
25988;SDS011;13778;48.236;9.894;2022-09-27T08:10:46;1.70;;;0.80;;
25988;SDS011;13778;48.236;9.894;2022-09-27T08:13:37;0.57;;;0.57;;
25988;SDS011;13778;48.236;9.894;2022-09-27T08:16:27;1.33;;;1.20;;
25988;SDS011;13778;48.236;9.894;2022-09-27T08:19:18;1.17;;;0.80;;
25988;SDS011;13778;48.236;9.894;2022-09-27T08:22:08;1.00;;;0.80;;
25988;SDS011;13778;48.236;9.894;2022-09-27T08:25:00;1.03;;;0.80;;
25988;SDS011;13778;48.236;9.894;2022-09-27T08:27:54;2.65;;;1.30;;
25988;SDS011;13778;48.236;9.894;2022-09-27T08:30:45;2.47;;;1.13;;
25988;SDS011;13778;48.236;9.894;2022-09-27T08:33:36;0.85;;;0.80;;
25988;SDS011;13778;48.236;9.894;2022-09-27T08:36:27;0.85;;;0.85;;
25988;SDS011;13778;48.236;9.894;2022-09-27T08:39:19;3.42;;;1.30;;
25988;SDS011;13778;48.236;9.894;2022-09-27T08:42:12;2.55;;;1.27;;
25988;SDS011;13778;48.236;9.894;2022-09-27T08:45:10;4.88;;;1.10;;
25988;SDS011;13778;48.236;9.894;2022-09-27T08:48:01;2.33;;;0.90;;
25988;SDS011;13778;48.236;9.894;2022-09-27T08:50:52;2.08;;;0.88;;
25988;SDS011;13778;48.236;9.894;2022-09-27T08:53:45;0.60;;;0.60;;
25988;SDS011;13778;48.236;9.894;2022-09-27T08:56:37;0.93;;;0.93;;
25988;SDS011;13778;48.236;9.894;2022-09-27T08:59:28;0.85;;;0.80;;
25988;SDS011;13778;48.236;9.894;2022-09-27T09:02:21;1.00;;;1.00;;
25988;SDS011;13778;48.236;9.894;2022-09-27T09:05:15;1.02;;;0.88;;
25988;SDS011;13778;48.236;9.894;2022-09-27T09:08:11;1.88;;;1.00;;
25988;SDS011;13778;48.236;9.894;2022-09-27T09:11:07;3.13;;;1.20;;
25988;SDS011;13778;48.236;9.894;2022-09-27T09:14:23;2.20;;;1.00;;
25988;SDS011;13778;48.236;9.894;2022-09-27T09:17:19;2.22;;;1.38;;
25988;SDS011;13778;48.236;9.894;2022-09-27T09:20:17;1.45;;;1.10;;
25988;SDS011;13778;48.236;9.894;2022-09-27T09:23:24;2.30;;;1.70;;
25988;SDS011;13778;48.236;9.894;2022-09-27T09:26:18;3.78;;;1.63;;
25988;SDS011;13778;48.236;9.894;2022-09-27T09:29:15;1.70;;;1.15;;
25988;SDS011;13778;48.236;9.894;2022-09-27T09:32:12;0.90;;;0.90;;
25988;SDS011;13778;48.236;9.894;2022-09-27T09:35:09;1.77;;;1.20;;
25988;SDS011;13778;48.236;9.894;2022-09-27T09:38:03;2.78;;;1.10;;
25988;SDS011;13778;48.236;9.894;2022-09-27T09:40:57;2.00;;;1.05;;
25988;SDS011;13778;48.236;9.894;2022-09-27T09:43:51;3.05;;;1.00;;
25988;SDS011;13778;48.236;9.894;2022-09-27T09:46:46;2.25;;;1.00;;
25988;SDS011;13778;48.236;9.894;2022-09-27T09:49:38;1.70;;;0.70;;
25988;SDS011;13778;48.236;9.894;2022-09-27T09:52:35;1.70;;;0.80;;
25988;SDS011;13778;48.236;9.894;2022-09-27T09:55:29;0.93;;;0.80;;
25988;SDS011;13778;48.236;9.894;2022-09-27T09:58:22;2.75;;;0.80;;
25988;SDS011;13778;48.236;9.894;2022-09-27T10:01:13;2.15;;;0.70;;
25988;SDS011;13778;48.236;9.894;2022-09-27T10:04:07;4.38;;;1.45;;
25988;SDS011;13778;48.236;9.894;2022-09-27T10:06:59;1.35;;;0.80;;
25988;SDS011;13778;48.236;9.894;2022-09-27T10:09:50;1.13;;;0.82;;
25988;SDS011;13778;48.236;9.894;2022-09-27T10:12:42;4.57;;;1.35;;
25988;SDS011;13778;48.236;9.894;2022-09-27T10:15:33;1.27;;;0.60;;
25988;SDS011;13778;48.236;9.894;2022-09-27T10:18:23;1.45;;;0.80;;
25988;SDS011;13778;48.236;9.894;2022-09-27T10:21:16;1.40;;;0.75;;
25988;SDS011;13778;48.236;9.894;2022-09-27T10:24:09;3.00;;;0.85;;
25988;SDS011;13778;48.236;9.894;2022-09-27T10:27:00;1.88;;;0.98;;
25988;SDS011;13778;48.236;9.894;2022-09-27T10:29:58;2.83;;;0.90;;
25988;SDS011;13778;48.236;9.894;2022-09-27T10:32:49;3.65;;;1.10;;
25988;SDS011;13778;48.236;9.894;2022-09-27T10:35:41;2.83;;;1.23;;
25988;SDS011;13778;48.236;9.894;2022-09-27T10:38:33;2.65;;;1.10;;
25988;SDS011;13778;48.236;9.894;2022-09-27T10:41:26;2.78;;;1.38;;
25988;SDS011;13778;48.236;9.894;2022-09-27T10:44:23;2.28;;;1.25;;
25988;SDS011;13778;48.236;9.894;2022-09-27T10:47:16;2.05;;;1.30;;
25988;SDS011;13778;48.236;9.894;2022-09-27T10:50:15;2.50;;;1.95;;
25988;SDS011;13778;48.236;9.894;2022-09-27T10:53:11;7.78;;;3.85;;
25988;SDS011;13778;48.236;9.894;2022-09-27T10:56:02;3.42;;;1.75;;
25988;SDS011;13778;48.236;9.894;2022-09-27T10:58:53;3.85;;;1.30;;
25988;SDS011;13778;48.236;9.894;2022-09-27T11:01:44;3.10;;;1.20;;
25988;SDS011;13778;48.236;9.894;2022-09-27T11:04:37;1.95;;;1.10;;
25988;SDS011;13778;48.236;9.894;2022-09-27T11:10:19;1.58;;;1.05;;
25988;SDS011;13778;48.236;9.894;2022-09-27T11:13:12;1.33;;;1.00;;
25988;SDS011;13778;48.236;9.894;2022-09-27T11:16:13;1.08;;;0.80;;
25988;SDS011;13778;48.236;9.894;2022-09-27T11:19:12;4.03;;;1.45;;
25988;SDS011;13778;48.236;9.894;2022-09-27T11:22:11;1.48;;;0.93;;
25988;SDS011;13778;48.236;9.894;2022-09-27T11:25:06;4.45;;;1.73;;
25988;SDS011;13778;48.236;9.894;2022-09-27T11:28:02;0.70;;;0.60;;
25988;SDS011;13778;48.236;9.894;2022-09-27T11:30:55;1.13;;;0.90;;
25988;SDS011;13778;48.236;9.894;2022-09-27T11:33:52;6.32;;;1.30;;
25988;SDS011;13778;48.236;9.894;2022-09-27T11:36:50;1.63;;;0.88;;
25988;SDS011;13778;48.236;9.894;2022-09-27T11:39:49;1.25;;;0.80;;
25988;SDS011;13778;48.236;9.894;2022-09-27T11:42:56;3.22;;;1.40;;
25988;SDS011;13778;48.236;9.894;2022-09-27T11:45:55;2.33;;;1.20;;
25988;SDS011;13778;48.236;9.894;2022-09-27T11:48:54;3.42;;;0.90;;
25988;SDS011;13778;48.236;9.894;2022-09-27T11:52:00;1.17;;;0.77;;
25988;SDS011;13778;48.236;9.894;2022-09-27T11:55:01;2.50;;;0.68;;
25988;SDS011;13778;48.236;9.894;2022-09-27T11:57:55;1.48;;;0.90;;
25988;SDS011;13778;48.236;9.894;2022-09-27T12:00:54;0.93;;;0.70;;
25988;SDS011;13778;48.236;9.894;2022-09-27T12:03:53;0.75;;;0.68;;
25988;SDS011;13778;48.236;9.894;2022-09-27T12:06:48;0.70;;;0.70;;
25988;SDS011;13778;48.236;9.894;2022-09-27T12:09:43;1.48;;;0.75;;
25988;SDS011;13778;48.236;9.894;2022-09-27T12:12:37;1.35;;;0.80;;
25988;SDS011;13778;48.236;9.894;2022-09-27T12:15:29;1.75;;;0.80;;
25988;SDS011;13778;48.236;9.894;2022-09-27T12:18:23;1.60;;;0.70;;
25988;SDS011;13778;48.236;9.894;2022-09-27T12:21:15;2.40;;;0.93;;
25988;SDS011;13778;48.236;9.894;2022-09-27T12:24:05;1.08;;;0.65;;
25988;SDS011;13778;48.236;9.894;2022-09-27T12:26:57;1.88;;;0.70;;
25988;SDS011;13778;48.236;9.894;2022-09-27T12:29:50;4.45;;;1.48;;
25988;SDS011;13778;48.236;9.894;2022-09-27T12:32:47;3.40;;;1.05;;
25988;SDS011;13778;48.236;9.894;2022-09-27T12:35:39;1.75;;;0.50;;
25988;SDS011;13778;48.236;9.894;2022-09-27T12:38:36;2.63;;;0.60;;
25988;SDS011;13778;48.236;9.894;2022-09-27T12:41:29;1.65;;;0.68;;
25988;SDS011;13778;48.236;9.894;2022-09-27T12:44:20;2.35;;;1.20;;
25988;SDS011;13778;48.236;9.894;2022-09-27T12:47:14;2.38;;;0.60;;
25988;SDS011;13778;48.236;9.894;2022-09-27T12:50:12;1.95;;;1.23;;
25988;SDS011;13778;48.236;9.894;2022-09-27T12:53:05;3.45;;;1.33;;
25988;SDS011;13778;48.236;9.894;2022-09-27T12:56:08;1.85;;;0.93;;
25988;SDS011;13778;48.236;9.894;2022-09-27T12:59:17;1.08;;;0.98;;
25988;SDS011;13778;48.236;9.894;2022-09-27T13:05:23;1.77;;;0.75;;
25988;SDS011;13778;48.236;9.894;2022-09-27T13:08:22;3.17;;;1.20;;
25988;SDS011;13778;48.236;9.894;2022-09-27T13:11:15;1.90;;;1.10;;
25988;SDS011;13778;48.236;9.894;2022-09-27T13:14:13;1.60;;;0.80;;
25988;SDS011;13778;48.236;9.894;2022-09-27T13:17:05;2.25;;;0.77;;
25988;SDS011;13778;48.236;9.894;2022-09-27T13:19:56;1.25;;;1.13;;
25988;SDS011;13778;48.236;9.894;2022-09-27T13:22:47;1.50;;;0.82;;
25988;SDS011;13778;48.236;9.894;2022-09-27T13:28:32;1.77;;;1.30;;
25988;SDS011;13778;48.236;9.894;2022-09-27T13:34:38;1.00;;;0.95;;
25988;SDS011;13778;48.236;9.894;2022-09-27T13:37:45;3.42;;;0.85;;
25988;SDS011;13778;48.236;9.894;2022-09-27T13:40:37;1.88;;;1.73;;
25988;SDS011;13778;48.236;9.894;2022-09-27T13:43:35;1.77;;;1.10;;
25988;SDS011;13778;48.236;9.894;2022-09-27T13:46:26;3.53;;;1.08;;
25988;SDS011;13778;48.236;9.894;2022-09-27T13:49:17;1.65;;;0.65;;
25988;SDS011;13778;48.236;9.894;2022-09-27T13:52:14;1.10;;;1.00;;
25988;SDS011;13778;48.236;9.894;2022-09-27T13:58:29;2.17;;;1.40;;
25988;SDS011;13778;48.236;9.894;2022-09-27T14:01:25;6.15;;;1.60;;
25988;SDS011;13778;48.236;9.894;2022-09-27T14:04:18;3.72;;;1.10;;
25988;SDS011;13778;48.236;9.894;2022-09-27T14:07:11;3.60;;;1.20;;
25988;SDS011;13778;48.236;9.894;2022-09-27T14:10:02;0.85;;;0.80;;
25988;SDS011;13778;48.236;9.894;2022-09-27T14:12:54;3.25;;;1.08;;
25988;SDS011;13778;48.236;9.894;2022-09-27T14:15:46;1.67;;;0.80;;
25988;SDS011;13778;48.236;9.894;2022-09-27T14:18:41;1.25;;;1.00;;
25988;SDS011;13778;48.236;9.894;2022-09-27T14:21:32;3.00;;;1.02;;
25988;SDS011;13778;48.236;9.894;2022-09-27T14:24:25;2.17;;;1.20;;
25988;SDS011;13778;48.236;9.894;2022-09-27T14:27:17;1.67;;;1.30;;
25988;SDS011;13778;48.236;9.894;2022-09-27T14:32:59;1.65;;;1.23;;
25988;SDS011;13778;48.236;9.894;2022-09-27T14:35:51;2.42;;;1.08;;
25988;SDS011;13778;48.236;9.894;2022-09-27T14:39:00;2.28;;;1.02;;
25988;SDS011;13778;48.236;9.894;2022-09-27T14:41:50;1.98;;;1.02;;
25988;SDS011;13778;48.236;9.894;2022-09-27T14:44:41;2.15;;;1.10;;
25988;SDS011;13778;48.236;9.894;2022-09-27T14:50:25;1.67;;;1.15;;
25988;SDS011;13778;48.236;9.894;2022-09-27T14:53:19;1.20;;;0.95;;
25988;SDS011;13778;48.236;9.894;2022-09-27T14:56:10;2.45;;;0.90;;
25988;SDS011;13778;48.236;9.894;2022-09-27T14:59:06;2.97;;;0.90;;
25988;SDS011;13778;48.236;9.894;2022-09-27T15:01:59;2.60;;;1.10;;
25988;SDS011;13778;48.236;9.894;2022-09-27T15:04:50;0.83;;;0.83;;
25988;SDS011;13778;48.236;9.894;2022-09-27T15:07:42;1.77;;;0.98;;
25988;SDS011;13778;48.236;9.894;2022-09-27T15:10:33;1.83;;;1.05;;
25988;SDS011;13778;48.236;9.894;2022-09-27T15:13:23;1.20;;;0.80;;
25988;SDS011;13778;48.236;9.894;2022-09-27T15:16:15;1.23;;;0.98;;
25988;SDS011;13778;48.236;9.894;2022-09-27T15:19:12;3.40;;;0.70;;
25988;SDS011;13778;48.236;9.894;2022-09-27T15:22:21;2.13;;;1.70;;
25988;SDS011;13778;48.236;9.894;2022-09-27T15:25:18;2.20;;;1.20;;
25988;SDS011;13778;48.236;9.894;2022-09-27T15:28:12;1.60;;;0.93;;
25988;SDS011;13778;48.236;9.894;2022-09-27T15:31:04;1.95;;;1.00;;
25988;SDS011;13778;48.236;9.894;2022-09-27T15:33:55;3.63;;;1.10;;
25988;SDS011;13778;48.236;9.894;2022-09-27T15:36:50;1.50;;;1.17;;
25988;SDS011;13778;48.236;9.894;2022-09-27T15:39:41;4.88;;;1.40;;
25988;SDS011;13778;48.236;9.894;2022-09-27T15:42:42;2.15;;;1.02;;
25988;SDS011;13778;48.236;9.894;2022-09-27T15:45:47;2.70;;;1.00;;
25988;SDS011;13778;48.236;9.894;2022-09-27T15:48:38;2.20;;;1.40;;
25988;SDS011;13778;48.236;9.894;2022-09-27T15:51:38;2.25;;;1.15;;
25988;SDS011;13778;48.236;9.894;2022-09-27T15:54:29;2.22;;;1.23;;
25988;SDS011;13778;48.236;9.894;2022-09-27T15:57:21;1.05;;;0.95;;
25988;SDS011;13778;48.236;9.894;2022-09-27T16:00:14;2.40;;;1.90;;
25988;SDS011;13778;48.236;9.894;2022-09-27T16:03:07;3.53;;;3.03;;
25988;SDS011;13778;48.236;9.894;2022-09-27T16:08:49;1.70;;;1.60;;
25988;SDS011;13778;48.236;9.894;2022-09-27T16:11:39;2.13;;;1.85;;
25988;SDS011;13778;48.236;9.894;2022-09-27T16:14:30;2.92;;;1.45;;
25988;SDS011;13778;48.236;9.894;2022-09-27T16:17:22;5.03;;;2.80;;
25988;SDS011;13778;48.236;9.894;2022-09-27T16:20:13;3.60;;;2.58;;
25988;SDS011;13778;48.236;9.894;2022-09-27T16:23:05;1.88;;;1.48;;
25988;SDS011;13778;48.236;9.894;2022-09-27T16:25:56;2.90;;;2.15;;
25988;SDS011;13778;48.236;9.894;2022-09-27T16:28:46;2.63;;;1.83;;
25988;SDS011;13778;48.236;9.894;2022-09-27T16:31:37;2.70;;;1.80;;
25988;SDS011;13778;48.236;9.894;2022-09-27T16:34:29;3.35;;;1.60;;
25988;SDS011;13778;48.236;9.894;2022-09-27T16:40:10;6.80;;;2.05;;
25988;SDS011;13778;48.236;9.894;2022-09-27T16:43:01;4.97;;;2.03;;
25988;SDS011;13778;48.236;9.894;2022-09-27T16:45:55;4.13;;;2.10;;
25988;SDS011;13778;48.236;9.894;2022-09-27T16:48:52;5.28;;;3.20;;
25988;SDS011;13778;48.236;9.894;2022-09-27T16:51:46;7.03;;;3.20;;
25988;SDS011;13778;48.236;9.894;2022-09-27T16:54:47;4.28;;;3.08;;
25988;SDS011;13778;48.236;9.894;2022-09-27T16:57:38;5.72;;;4.22;;
25988;SDS011;13778;48.236;9.894;2022-09-27T17:00:28;10.25;;;5.55;;
25988;SDS011;13778;48.236;9.894;2022-09-27T17:03:19;5.35;;;4.10;;
25988;SDS011;13778;48.236;9.894;2022-09-27T17:06:09;5.70;;;3.22;;
25988;SDS011;13778;48.236;9.894;2022-09-27T17:09:02;4.07;;;3.20;;
25988;SDS011;13778;48.236;9.894;2022-09-27T17:11:52;2.95;;;2.55;;
25988;SDS011;13778;48.236;9.894;2022-09-27T17:14:43;7.72;;;3.63;;
25988;SDS011;13778;48.236;9.894;2022-09-27T17:17:34;5.40;;;2.90;;
25988;SDS011;13778;48.236;9.894;2022-09-27T17:20:24;4.50;;;2.95;;
25988;SDS011;13778;48.236;9.894;2022-09-27T17:23:15;4.57;;;2.42;;
25988;SDS011;13778;48.236;9.894;2022-09-27T17:26:07;5.50;;;2.30;;
25988;SDS011;13778;48.236;9.894;2022-09-27T17:28:58;3.22;;;2.08;;
25988;SDS011;13778;48.236;9.894;2022-09-27T17:31:49;3.22;;;1.83;;
25988;SDS011;13778;48.236;9.894;2022-09-27T17:34:40;5.40;;;2.20;;
25988;SDS011;13778;48.236;9.894;2022-09-27T17:37:31;4.63;;;2.13;;
25988;SDS011;13778;48.236;9.894;2022-09-27T17:40:22;5.50;;;1.60;;
25988;SDS011;13778;48.236;9.894;2022-09-27T17:43:14;1.95;;;1.73;;
25988;SDS011;13778;48.236;9.894;2022-09-27T17:46:05;1.50;;;1.27;;
25988;SDS011;13778;48.236;9.894;2022-09-27T17:48:56;4.05;;;2.58;;
25988;SDS011;13778;48.236;9.894;2022-09-27T17:52:04;1.65;;;1.55;;
25988;SDS011;13778;48.236;9.894;2022-09-27T17:54:55;7.85;;;1.95;;
25988;SDS011;13778;48.236;9.894;2022-09-27T17:57:47;2.47;;;1.73;;
25988;SDS011;13778;48.236;9.894;2022-09-27T18:00:39;2.08;;;1.45;;
25988;SDS011;13778;48.236;9.894;2022-09-27T18:03:30;4.88;;;1.30;;